sensor_id;sensor_type;location;lat;lon;timestamp;temperature;humidity
71254;HTU21D;59019;47.638;18.966;2023-08-17T00:01:39;20.72;115.49
71254;HTU21D;59019;47.638;18.966;2023-08-17T00:04:04;20.69;115.53
71254;HTU21D;59019;47.638;18.966;2023-08-17T00:06:30;20.69;113.32
71254;HTU21D;59019;47.638;18.966;2023-08-17T00:08:55;20.65;113.55
71254;HTU21D;59019;47.638;18.966;2023-08-17T00:11:21;20.61;113.46
71254;HTU21D;59019;47.638;18.966;2023-08-17T00:13:50;20.59;113.15
71254;HTU21D;59019;47.638;18.966;2023-08-17T00:16:15;20.48;113.97
71254;HTU21D;59019;47.638;18.966;2023-08-17T00:18:41;20.44;113.83
71254;HTU21D;59019;47.638;18.966;2023-08-17T00:21:07;20.41;112.61
71254;HTU21D;59019;47.638;18.966;2023-08-17T00:23:32;20.40;110.97
71254;HTU21D;59019;47.638;18.966;2023-08-17T00:25:58;20.27;115.00
71254;HTU21D;59019;47.638;18.966;2023-08-17T00:28:24;20.24;115.54
71254;HTU21D;59019;47.638;18.966;2023-08-17T00:30:50;20.26;114.83
71254;HTU21D;59019;47.638;18.966;2023-08-17T00:33:16;20.27;116.01
71254;HTU21D;59019;47.638;18.966;2023-08-17T00:35:42;20.30;116.06
71254;HTU21D;59019;47.638;18.966;2023-08-17T00:38:08;20.22;116.24
71254;HTU21D;59019;47.638;18.966;2023-08-17T00:40:34;20.20;118.02
71254;HTU21D;59019;47.638;18.966;2023-08-17T00:42:59;20.21;115.07
71254;HTU21D;59019;47.638;18.966;2023-08-17T00:45:26;20.14;118.19
71254;HTU21D;59019;47.638;18.966;2023-08-17T00:47:56;20.13;117.86
71254;HTU21D;59019;47.638;18.966;2023-08-17T00:50:22;20.16;116.38
71254;HTU21D;59019;47.638;18.966;2023-08-17T00:52:48;20.15;118.05
71254;HTU21D;59019;47.638;18.966;2023-08-17T00:55:14;20.19;117.14
71254;HTU21D;59019;47.638;18.966;2023-08-17T00:57:46;20.21;116.63
71254;HTU21D;59019;47.638;18.966;2023-08-17T01:00:12;20.24;117.74
71254;HTU21D;59019;47.638;18.966;2023-08-17T01:02:42;20.25;116.41
71254;HTU21D;59019;47.638;18.966;2023-08-17T01:05:08;20.29;116.35
71254;HTU21D;59019;47.638;18.966;2023-08-17T01:07:33;20.24;118.11
71254;HTU21D;59019;47.638;18.966;2023-08-17T01:09:59;20.32;117.29
71254;HTU21D;59019;47.638;18.966;2023-08-17T01:12:31;20.39;115.77
71254;HTU21D;59019;47.638;18.966;2023-08-17T01:15:01;20.40;114.34
71254;HTU21D;59019;47.638;18.966;2023-08-17T01:17:33;20.37;114.99
71254;HTU21D;59019;47.638;18.966;2023-08-17T01:20:03;20.45;112.87
71254;HTU21D;59019;47.638;18.966;2023-08-17T01:22:30;20.41;113.00
71254;HTU21D;59019;47.638;18.966;2023-08-17T01:24:58;20.25;115.86
71254;HTU21D;59019;47.638;18.966;2023-08-17T01:27:24;20.25;116.02
71254;HTU21D;59019;47.638;18.966;2023-08-17T01:29:51;20.25;117.02
71254;HTU21D;59019;47.638;18.966;2023-08-17T01:33:08;20.17;116.21
71254;HTU21D;59019;47.638;18.966;2023-08-17T01:35:42;20.07;116.68
71254;HTU21D;59019;47.638;18.966;2023-08-17T01:38:13;20.00;116.10
71254;HTU21D;59019;47.638;18.966;2023-08-17T01:40:41;19.91;117.78
71254;HTU21D;59019;47.638;18.966;2023-08-17T01:43:08;19.89;118.61
71254;HTU21D;59019;47.638;18.966;2023-08-17T01:45:34;19.84;-5.89
71254;HTU21D;59019;47.638;18.966;2023-08-17T01:47:59;19.89;117.68
71254;HTU21D;59019;47.638;18.966;2023-08-17T01:50:27;19.95;-4.81
71254;HTU21D;59019;47.638;18.966;2023-08-17T01:52:53;19.94;-5.98
71254;HTU21D;59019;47.638;18.966;2023-08-17T01:55:21;19.92;118.51
71254;HTU21D;59019;47.638;18.966;2023-08-17T01:57:46;19.97;-4.27
71254;HTU21D;59019;47.638;18.966;2023-08-17T02:00:12;19.96;-5.47
71254;HTU21D;59019;47.638;18.966;2023-08-17T02:02:38;19.95;117.71
71254;HTU21D;59019;47.638;18.966;2023-08-17T02:05:04;19.91;-4.57
71254;HTU21D;59019;47.638;18.966;2023-08-17T02:07:29;19.92;-5.99
71254;HTU21D;59019;47.638;18.966;2023-08-17T02:09:55;19.95;-5.79
71254;HTU21D;59019;47.638;18.966;2023-08-17T02:12:20;20.04;116.96
71254;HTU21D;59019;47.638;18.966;2023-08-17T02:14:46;20.11;114.58
71254;HTU21D;59019;47.638;18.966;2023-08-17T02:17:12;20.11;112.94
71254;HTU21D;59019;47.638;18.966;2023-08-17T02:19:37;20.14;113.59
71254;HTU21D;59019;47.638;18.966;2023-08-17T02:22:03;20.15;114.75
71254;HTU21D;59019;47.638;18.966;2023-08-17T02:24:29;20.06;116.38
71254;HTU21D;59019;47.638;18.966;2023-08-17T02:26:54;19.90;117.74
71254;HTU21D;59019;47.638;18.966;2023-08-17T02:29:20;19.89;118.82
71254;HTU21D;59019;47.638;18.966;2023-08-17T02:31:45;19.91;-4.91
71254;HTU21D;59019;47.638;18.966;2023-08-17T02:34:11;19.99;118.77
71254;HTU21D;59019;47.638;18.966;2023-08-17T02:36:36;20.03;117.72
71254;HTU21D;59019;47.638;18.966;2023-08-17T02:39:02;20.04;118.42
71254;HTU21D;59019;47.638;18.966;2023-08-17T02:41:28;20.02;117.73
71254;HTU21D;59019;47.638;18.966;2023-08-17T02:43:55;20.06;117.02
71254;HTU21D;59019;47.638;18.966;2023-08-17T02:46:21;20.03;117.10
71254;HTU21D;59019;47.638;18.966;2023-08-17T02:48:46;20.05;117.44
71254;HTU21D;59019;47.638;18.966;2023-08-17T02:51:13;20.11;117.24
71254;HTU21D;59019;47.638;18.966;2023-08-17T02:53:38;20.16;114.85
71254;HTU21D;59019;47.638;18.966;2023-08-17T02:56:04;20.17;113.48
71254;HTU21D;59019;47.638;18.966;2023-08-17T02:58:29;20.22;112.90
71254;HTU21D;59019;47.638;18.966;2023-08-17T03:00:55;20.19;112.19
71254;HTU21D;59019;47.638;18.966;2023-08-17T03:03:20;20.19;112.52
71254;HTU21D;59019;47.638;18.966;2023-08-17T03:05:47;20.18;112.88
71254;HTU21D;59019;47.638;18.966;2023-08-17T03:08:12;20.10;111.25
71254;HTU21D;59019;47.638;18.966;2023-08-17T03:10:38;20.02;112.33
71254;HTU21D;59019;47.638;18.966;2023-08-17T03:13:04;20.02;112.59
71254;HTU21D;59019;47.638;18.966;2023-08-17T03:15:29;20.02;112.08
71254;HTU21D;59019;47.638;18.966;2023-08-17T03:17:55;19.94;111.73
71254;HTU21D;59019;47.638;18.966;2023-08-17T03:20:20;19.85;113.86
71254;HTU21D;59019;47.638;18.966;2023-08-17T03:22:47;19.81;113.83
71254;HTU21D;59019;47.638;18.966;2023-08-17T03:25:13;19.80;114.17
71254;HTU21D;59019;47.638;18.966;2023-08-17T03:27:38;19.74;114.67
71254;HTU21D;59019;47.638;18.966;2023-08-17T03:30:05;19.71;117.10
71254;HTU21D;59019;47.638;18.966;2023-08-17T03:32:30;19.71;118.22
71254;HTU21D;59019;47.638;18.966;2023-08-17T03:34:56;19.72;118.47
71254;HTU21D;59019;47.638;18.966;2023-08-17T03:37:21;19.72;-5.35
71254;HTU21D;59019;47.638;18.966;2023-08-17T03:39:47;19.79;-4.98
71254;HTU21D;59019;47.638;18.966;2023-08-17T03:42:12;19.89;118.89
71254;HTU21D;59019;47.638;18.966;2023-08-17T03:44:38;19.95;117.67
71254;HTU21D;59019;47.638;18.966;2023-08-17T03:47:03;20.03;-5.08
71254;HTU21D;59019;47.638;18.966;2023-08-17T03:49:29;20.09;118.54
71254;HTU21D;59019;47.638;18.966;2023-08-17T03:51:54;20.13;117.15
71254;HTU21D;59019;47.638;18.966;2023-08-17T03:54:20;20.06;118.34
71254;HTU21D;59019;47.638;18.966;2023-08-17T03:56:45;20.01;117.66
71254;HTU21D;59019;47.638;18.966;2023-08-17T03:59:11;19.96;-4.83
71254;HTU21D;59019;47.638;18.966;2023-08-17T04:01:36;19.88;-3.08
71254;HTU21D;59019;47.638;18.966;2023-08-17T04:04:02;19.95;-1.06
71254;HTU21D;59019;47.638;18.966;2023-08-17T04:06:27;19.99;-4.87
71254;HTU21D;59019;47.638;18.966;2023-08-17T04:08:53;20.01;-3.92
71254;HTU21D;59019;47.638;18.966;2023-08-17T04:11:18;20.05;118.95
71254;HTU21D;59019;47.638;18.966;2023-08-17T04:13:44;20.07;118.32
71254;HTU21D;59019;47.638;18.966;2023-08-17T04:16:09;20.18;115.67
71254;HTU21D;59019;47.638;18.966;2023-08-17T04:18:35;20.30;113.94
71254;HTU21D;59019;47.638;18.966;2023-08-17T04:21:02;20.31;112.77
71254;HTU21D;59019;47.638;18.966;2023-08-17T04:23:27;20.31;112.53
71254;HTU21D;59019;47.638;18.966;2023-08-17T04:25:55;20.30;112.66
71254;HTU21D;59019;47.638;18.966;2023-08-17T04:28:21;20.28;112.36
71254;HTU21D;59019;47.638;18.966;2023-08-17T04:30:46;20.28;112.87
71254;HTU21D;59019;47.638;18.966;2023-08-17T04:33:12;20.30;113.16
71254;HTU21D;59019;47.638;18.966;2023-08-17T04:35:38;20.31;113.06
71254;HTU21D;59019;47.638;18.966;2023-08-17T04:38:04;20.32;113.01
71254;HTU21D;59019;47.638;18.966;2023-08-17T04:40:29;20.33;113.48
71254;HTU21D;59019;47.638;18.966;2023-08-17T04:42:55;20.39;114.24
71254;HTU21D;59019;47.638;18.966;2023-08-17T04:45:21;20.41;113.97
71254;HTU21D;59019;47.638;18.966;2023-08-17T04:47:46;20.49;113.74
71254;HTU21D;59019;47.638;18.966;2023-08-17T04:50:12;20.54;112.70
71254;HTU21D;59019;47.638;18.966;2023-08-17T04:52:44;20.59;113.91
71254;HTU21D;59019;47.638;18.966;2023-08-17T04:55:10;20.59;113.35
71254;HTU21D;59019;47.638;18.966;2023-08-17T04:57:36;20.59;113.82
71254;HTU21D;59019;47.638;18.966;2023-08-17T05:00:01;20.61;113.61
71254;HTU21D;59019;47.638;18.966;2023-08-17T05:02:28;20.69;112.94
71254;HTU21D;59019;47.638;18.966;2023-08-17T05:04:53;20.70;112.76
71254;HTU21D;59019;47.638;18.966;2023-08-17T05:07:19;20.76;112.25
71254;HTU21D;59019;47.638;18.966;2023-08-17T05:09:44;20.80;112.00
71254;HTU21D;59019;47.638;18.966;2023-08-17T05:12:10;20.84;112.39
71254;HTU21D;59019;47.638;18.966;2023-08-17T05:14:35;20.87;112.33
71254;HTU21D;59019;47.638;18.966;2023-08-17T05:17:01;20.94;112.89
71254;HTU21D;59019;47.638;18.966;2023-08-17T05:19:26;21.05;111.61
71254;HTU21D;59019;47.638;18.966;2023-08-17T05:21:52;21.09;111.15
71254;HTU21D;59019;47.638;18.966;2023-08-17T05:24:19;21.19;110.03
71254;HTU21D;59019;47.638;18.966;2023-08-17T05:26:48;21.36;109.52
71254;HTU21D;59019;47.638;18.966;2023-08-17T05:29:14;21.52;108.14
71254;HTU21D;59019;47.638;18.966;2023-08-17T05:31:39;21.69;106.95
71254;HTU21D;59019;47.638;18.966;2023-08-17T05:34:05;21.90;105.92
71254;HTU21D;59019;47.638;18.966;2023-08-17T05:36:30;22.06;104.98
71254;HTU21D;59019;47.638;18.966;2023-08-17T05:38:56;22.28;105.16
71254;HTU21D;59019;47.638;18.966;2023-08-17T05:41:21;22.52;104.07
71254;HTU21D;59019;47.638;18.966;2023-08-17T05:43:48;23.07;102.43
71254;HTU21D;59019;47.638;18.966;2023-08-17T05:46:14;23.59;99.67
71254;HTU21D;59019;47.638;18.966;2023-08-17T05:48:39;24.21;97.52
71254;HTU21D;59019;47.638;18.966;2023-08-17T05:51:06;24.69;95.69
71254;HTU21D;59019;47.638;18.966;2023-08-17T05:53:32;24.94;92.82
71254;HTU21D;59019;47.638;18.966;2023-08-17T05:55:57;25.01;92.15
71254;HTU21D;59019;47.638;18.966;2023-08-17T05:58:23;25.07;91.92
71254;HTU21D;59019;47.638;18.966;2023-08-17T06:00:49;24.98;91.69
71254;HTU21D;59019;47.638;18.966;2023-08-17T06:03:15;25.28;92.40
71254;HTU21D;59019;47.638;18.966;2023-08-17T06:05:41;25.48;91.60
71254;HTU21D;59019;47.638;18.966;2023-08-17T06:08:09;25.84;91.40
71254;HTU21D;59019;47.638;18.966;2023-08-17T06:10:35;25.94;89.79
71254;HTU21D;59019;47.638;18.966;2023-08-17T06:13:00;26.03;90.47
71254;HTU21D;59019;47.638;18.966;2023-08-17T06:15:26;26.23;90.80
71254;HTU21D;59019;47.638;18.966;2023-08-17T06:17:51;26.55;90.26
71254;HTU21D;59019;47.638;18.966;2023-08-17T06:20:18;26.93;89.94
71254;HTU21D;59019;47.638;18.966;2023-08-17T06:22:44;27.25;88.31
71254;HTU21D;59019;47.638;18.966;2023-08-17T06:25:09;27.38;86.27
71254;HTU21D;59019;47.638;18.966;2023-08-17T06:27:36;27.38;86.43
71254;HTU21D;59019;47.638;18.966;2023-08-17T06:30:03;27.69;86.76
71254;HTU21D;59019;47.638;18.966;2023-08-17T06:32:30;28.02;83.59
71254;HTU21D;59019;47.638;18.966;2023-08-17T06:34:55;28.17;79.40
71254;HTU21D;59019;47.638;18.966;2023-08-17T06:37:21;28.06;77.93
71254;HTU21D;59019;47.638;18.966;2023-08-17T06:39:46;27.88;78.59
71254;HTU21D;59019;47.638;18.966;2023-08-17T06:42:11;28.01;79.98
71254;HTU21D;59019;47.638;18.966;2023-08-17T06:44:37;28.45;78.62
71254;HTU21D;59019;47.638;18.966;2023-08-17T06:47:03;28.70;76.64
71254;HTU21D;59019;47.638;18.966;2023-08-17T06:49:28;28.67;76.02
71254;HTU21D;59019;47.638;18.966;2023-08-17T06:51:54;28.09;74.72
71254;HTU21D;59019;47.638;18.966;2023-08-17T06:54:19;27.79;76.42
71254;HTU21D;59019;47.638;18.966;2023-08-17T06:56:45;27.49;77.76
71254;HTU21D;59019;47.638;18.966;2023-08-17T06:59:10;27.44;78.30
71254;HTU21D;59019;47.638;18.966;2023-08-17T07:01:36;27.56;78.05
71254;HTU21D;59019;47.638;18.966;2023-08-17T07:04:02;27.91;77.30
71254;HTU21D;59019;47.638;18.966;2023-08-17T07:06:27;28.01;77.49
71254;HTU21D;59019;47.638;18.966;2023-08-17T07:08:54;28.61;74.64
71254;HTU21D;59019;47.638;18.966;2023-08-17T07:11:19;28.94;74.51
71254;HTU21D;59019;47.638;18.966;2023-08-17T07:13:45;28.86;73.51
71254;HTU21D;59019;47.638;18.966;2023-08-17T07:16:10;28.21;73.80
71254;HTU21D;59019;47.638;18.966;2023-08-17T07:18:36;28.14;74.95
71254;HTU21D;59019;47.638;18.966;2023-08-17T07:21:01;28.12;74.70
71254;HTU21D;59019;47.638;18.966;2023-08-17T07:23:27;28.03;74.69
71254;HTU21D;59019;47.638;18.966;2023-08-17T07:25:52;28.12;73.55
71254;HTU21D;59019;47.638;18.966;2023-08-17T07:28:18;28.05;74.12
71254;HTU21D;59019;47.638;18.966;2023-08-17T07:30:44;27.72;74.97
71254;HTU21D;59019;47.638;18.966;2023-08-17T07:33:09;27.69;75.21
71254;HTU21D;59019;47.638;18.966;2023-08-17T07:35:35;27.15;75.72
71254;HTU21D;59019;47.638;18.966;2023-08-17T07:38:00;27.94;74.36
71254;HTU21D;59019;47.638;18.966;2023-08-17T07:40:26;28.86;73.48
71254;HTU21D;59019;47.638;18.966;2023-08-17T07:42:51;29.16;71.54
71254;HTU21D;59019;47.638;18.966;2023-08-17T07:45:17;29.86;70.53
71254;HTU21D;59019;47.638;18.966;2023-08-17T07:47:42;29.96;68.55
71254;HTU21D;59019;47.638;18.966;2023-08-17T07:50:08;30.32;68.63
71254;HTU21D;59019;47.638;18.966;2023-08-17T07:52:34;30.30;67.42
71254;HTU21D;59019;47.638;18.966;2023-08-17T07:54:59;30.00;67.76
71254;HTU21D;59019;47.638;18.966;2023-08-17T07:57:25;28.76;69.61
71254;HTU21D;59019;47.638;18.966;2023-08-17T07:59:50;28.49;71.32
71254;HTU21D;59019;47.638;18.966;2023-08-17T08:02:17;28.06;72.38
71254;HTU21D;59019;47.638;18.966;2023-08-17T08:04:42;27.82;73.23
71254;HTU21D;59019;47.638;18.966;2023-08-17T08:07:09;27.45;74.81
71254;HTU21D;59019;47.638;18.966;2023-08-17T08:09:34;27.14;75.68
71254;HTU21D;59019;47.638;18.966;2023-08-17T08:12:00;26.90;75.97
71254;HTU21D;59019;47.638;18.966;2023-08-17T08:14:25;26.84;77.54
71254;HTU21D;59019;47.638;18.966;2023-08-17T08:16:51;26.70;77.71
71254;HTU21D;59019;47.638;18.966;2023-08-17T08:19:17;26.62;78.14
71254;HTU21D;59019;47.638;18.966;2023-08-17T08:21:42;26.53;79.25
71254;HTU21D;59019;47.638;18.966;2023-08-17T08:24:08;26.67;79.85
71254;HTU21D;59019;47.638;18.966;2023-08-17T08:26:33;26.87;79.03
71254;HTU21D;59019;47.638;18.966;2023-08-17T08:28:59;26.87;79.00
71254;HTU21D;59019;47.638;18.966;2023-08-17T08:31:24;26.79;78.80
71254;HTU21D;59019;47.638;18.966;2023-08-17T08:33:50;26.81;79.38
71254;HTU21D;59019;47.638;18.966;2023-08-17T08:36:17;26.81;78.95
71254;HTU21D;59019;47.638;18.966;2023-08-17T08:38:42;26.57;79.16
71254;HTU21D;59019;47.638;18.966;2023-08-17T08:41:08;26.81;79.48
71254;HTU21D;59019;47.638;18.966;2023-08-17T08:43:34;27.20;79.26
71254;HTU21D;59019;47.638;18.966;2023-08-17T08:46:00;27.66;78.45
71254;HTU21D;59019;47.638;18.966;2023-08-17T08:48:26;28.79;76.75
71254;HTU21D;59019;47.638;18.966;2023-08-17T08:50:54;29.92;72.29
71254;HTU21D;59019;47.638;18.966;2023-08-17T08:53:25;31.01;68.66
71254;HTU21D;59019;47.638;18.966;2023-08-17T08:55:57;31.60;67.69
71254;HTU21D;59019;47.638;18.966;2023-08-17T08:58:25;31.46;66.17
71254;HTU21D;59019;47.638;18.966;2023-08-17T09:00:52;31.15;64.98
71254;HTU21D;59019;47.638;18.966;2023-08-17T09:03:18;30.74;65.11
71254;HTU21D;59019;47.638;18.966;2023-08-17T09:05:49;30.42;66.78
71254;HTU21D;59019;47.638;18.966;2023-08-17T09:08:21;30.39;67.73
71254;HTU21D;59019;47.638;18.966;2023-08-17T09:10:50;31.21;66.14
71254;HTU21D;59019;47.638;18.966;2023-08-17T09:13:16;31.39;66.27
71254;HTU21D;59019;47.638;18.966;2023-08-17T09:15:41;31.85;65.21
71254;HTU21D;59019;47.638;18.966;2023-08-17T09:18:07;32.26;63.63
71254;HTU21D;59019;47.638;18.966;2023-08-17T09:20:41;32.66;63.05
71254;HTU21D;59019;47.638;18.966;2023-08-17T09:23:11;32.72;62.34
71254;HTU21D;59019;47.638;18.966;2023-08-17T09:25:39;33.08;61.41
71254;HTU21D;59019;47.638;18.966;2023-08-17T09:28:15;33.44;59.57
71254;HTU21D;59019;47.638;18.966;2023-08-17T09:30:57;32.94;58.59
71254;HTU21D;59019;47.638;18.966;2023-08-17T09:33:28;31.08;62.05
71254;HTU21D;59019;47.638;18.966;2023-08-17T09:35:55;30.61;63.52
71254;HTU21D;59019;47.638;18.966;2023-08-17T09:38:21;29.95;65.32
71254;HTU21D;59019;47.638;18.966;2023-08-17T09:40:47;28.57;69.21
71254;HTU21D;59019;47.638;18.966;2023-08-17T09:43:14;28.77;69.96
71254;HTU21D;59019;47.638;18.966;2023-08-17T09:45:40;29.83;68.64
71254;HTU21D;59019;47.638;18.966;2023-08-17T09:48:07;30.99;65.73
71254;HTU21D;59019;47.638;18.966;2023-08-17T09:50:34;31.72;63.70
71254;HTU21D;59019;47.638;18.966;2023-08-17T09:53:00;30.96;63.27
71254;HTU21D;59019;47.638;18.966;2023-08-17T09:55:25;31.38;63.78
71254;HTU21D;59019;47.638;18.966;2023-08-17T09:57:51;32.25;62.06
71254;HTU21D;59019;47.638;18.966;2023-08-17T10:00:19;32.99;59.83
71254;HTU21D;59019;47.638;18.966;2023-08-17T10:02:49;33.32;58.52
71254;HTU21D;59019;47.638;18.966;2023-08-17T10:05:18;32.76;59.44
71254;HTU21D;59019;47.638;18.966;2023-08-17T10:07:47;32.48;59.99
71254;HTU21D;59019;47.638;18.966;2023-08-17T10:10:16;31.69;62.10
71254;HTU21D;59019;47.638;18.966;2023-08-17T10:12:48;30.86;62.69
71254;HTU21D;59019;47.638;18.966;2023-08-17T10:15:15;30.62;63.66
71254;HTU21D;59019;47.638;18.966;2023-08-17T10:20:56;31.95;62.45
71254;HTU21D;59019;47.638;18.966;2023-08-17T10:23:26;32.54;61.67
71254;HTU21D;59019;47.638;18.966;2023-08-17T10:25:52;32.87;60.13
71254;HTU21D;59019;47.638;18.966;2023-08-17T10:28:19;32.92;59.75
71254;HTU21D;59019;47.638;18.966;2023-08-17T10:30:46;33.03;58.75
71254;HTU21D;59019;47.638;18.966;2023-08-17T10:33:14;33.14;58.91
71254;HTU21D;59019;47.638;18.966;2023-08-17T10:35:41;31.80;59.09
71254;HTU21D;59019;47.638;18.966;2023-08-17T10:38:07;31.64;60.96
71254;HTU21D;59019;47.638;18.966;2023-08-17T10:40:38;31.14;61.54
71254;HTU21D;59019;47.638;18.966;2023-08-17T10:43:04;31.23;62.60
71254;HTU21D;59019;47.638;18.966;2023-08-17T10:45:34;31.45;62.25
71254;HTU21D;59019;47.638;18.966;2023-08-17T10:50:33;29.97;65.11
71254;HTU21D;59019;47.638;18.966;2023-08-17T10:53:13;30.41;65.68
71254;HTU21D;59019;47.638;18.966;2023-08-17T10:55:45;30.70;65.33
71254;HTU21D;59019;47.638;18.966;2023-08-17T10:58:13;30.47;64.27
71254;HTU21D;59019;47.638;18.966;2023-08-17T11:00:39;30.36;64.54
71254;HTU21D;59019;47.638;18.966;2023-08-17T11:03:18;30.34;64.27
71254;HTU21D;59019;47.638;18.966;2023-08-17T11:05:50;30.34;64.31
71254;HTU21D;59019;47.638;18.966;2023-08-17T11:08:20;30.50;63.57
71254;HTU21D;59019;47.638;18.966;2023-08-17T11:11:13;30.61;63.33
71254;HTU21D;59019;47.638;18.966;2023-08-17T11:13:41;30.39;63.92
71254;HTU21D;59019;47.638;18.966;2023-08-17T11:16:11;30.98;63.61
71254;HTU21D;59019;47.638;18.966;2023-08-17T11:18:37;31.20;61.94
71254;HTU21D;59019;47.638;18.966;2023-08-17T11:21:04;30.71;62.69
71254;HTU21D;59019;47.638;18.966;2023-08-17T11:23:31;30.61;63.70
71254;HTU21D;59019;47.638;18.966;2023-08-17T11:25:57;30.78;62.59
71254;HTU21D;59019;47.638;18.966;2023-08-17T11:28:23;30.56;62.41
71254;HTU21D;59019;47.638;18.966;2023-08-17T11:30:59;30.21;63.47
71254;HTU21D;59019;47.638;18.966;2023-08-17T11:33:28;29.62;64.89
71254;HTU21D;59019;47.638;18.966;2023-08-17T11:35:55;29.71;65.72
71254;HTU21D;59019;47.638;18.966;2023-08-17T11:38:21;30.00;65.01
71254;HTU21D;59019;47.638;18.966;2023-08-17T11:40:47;30.18;65.03
71254;HTU21D;59019;47.638;18.966;2023-08-17T11:43:13;30.26;64.81
71254;HTU21D;59019;47.638;18.966;2023-08-17T11:45:39;30.32;63.98
71254;HTU21D;59019;47.638;18.966;2023-08-17T11:48:05;30.70;63.48
71254;HTU21D;59019;47.638;18.966;2023-08-17T11:50:30;30.32;64.76
71254;HTU21D;59019;47.638;18.966;2023-08-17T11:52:59;29.83;65.48
71254;HTU21D;59019;47.638;18.966;2023-08-17T11:55:25;29.63;66.27
71254;HTU21D;59019;47.638;18.966;2023-08-17T11:57:51;29.43;66.72
71254;HTU21D;59019;47.638;18.966;2023-08-17T12:00:18;28.25;67.88
71254;HTU21D;59019;47.638;18.966;2023-08-17T12:02:52;28.57;69.07
71254;HTU21D;59019;47.638;18.966;2023-08-17T12:05:22;28.86;66.96
71254;HTU21D;59019;47.638;18.966;2023-08-17T12:07:55;29.00;67.73
71254;HTU21D;59019;47.638;18.966;2023-08-17T12:10:21;29.17;67.40
71254;HTU21D;59019;47.638;18.966;2023-08-17T12:12:48;29.37;66.22
71254;HTU21D;59019;47.638;18.966;2023-08-17T12:15:15;29.68;66.38
71254;HTU21D;59019;47.638;18.966;2023-08-17T12:17:48;30.08;64.76
71254;HTU21D;59019;47.638;18.966;2023-08-17T12:20:18;30.41;64.59
71254;HTU21D;59019;47.638;18.966;2023-08-17T12:22:44;30.91;63.94
71254;HTU21D;59019;47.638;18.966;2023-08-17T12:25:10;31.24;62.58
71254;HTU21D;59019;47.638;18.966;2023-08-17T12:27:36;30.79;62.49
71254;HTU21D;59019;47.638;18.966;2023-08-17T12:30:02;30.99;62.40
71254;HTU21D;59019;47.638;18.966;2023-08-17T12:32:27;31.35;61.59
71254;HTU21D;59019;47.638;18.966;2023-08-17T12:34:56;31.53;61.24
71254;HTU21D;59019;47.638;18.966;2023-08-17T12:37:21;31.58;60.64
71254;HTU21D;59019;47.638;18.966;2023-08-17T12:39:47;31.54;61.12
71254;HTU21D;59019;47.638;18.966;2023-08-17T12:42:13;32.09;60.18
71254;HTU21D;59019;47.638;18.966;2023-08-17T12:44:39;32.59;59.06
71254;HTU21D;59019;47.638;18.966;2023-08-17T12:47:05;32.71;57.98
71254;HTU21D;59019;47.638;18.966;2023-08-17T12:49:30;33.15;57.66
71254;HTU21D;59019;47.638;18.966;2023-08-17T12:51:55;33.04;58.03
71254;HTU21D;59019;47.638;18.966;2023-08-17T12:54:21;32.94;58.74
71254;HTU21D;59019;47.638;18.966;2023-08-17T12:56:46;33.30;56.72
71254;HTU21D;59019;47.638;18.966;2023-08-17T12:59:12;33.55;57.42
71254;HTU21D;59019;47.638;18.966;2023-08-17T13:01:38;33.51;56.14
71254;HTU21D;59019;47.638;18.966;2023-08-17T13:04:04;33.81;56.71
71254;HTU21D;59019;47.638;18.966;2023-08-17T13:06:29;33.86;56.06
71254;HTU21D;59019;47.638;18.966;2023-08-17T13:08:55;34.25;55.68
71254;HTU21D;59019;47.638;18.966;2023-08-17T13:11:20;34.21;55.52
71254;HTU21D;59019;47.638;18.966;2023-08-17T13:13:46;33.88;55.60
71254;HTU21D;59019;47.638;18.966;2023-08-17T13:16:11;34.27;56.36
71254;HTU21D;59019;47.638;18.966;2023-08-17T13:18:37;34.61;55.54
71254;HTU21D;59019;47.638;18.966;2023-08-17T13:21:03;34.31;54.68
71254;HTU21D;59019;47.638;18.966;2023-08-17T13:23:29;34.17;54.62
71254;HTU21D;59019;47.638;18.966;2023-08-17T13:25:54;33.55;55.84
71254;HTU21D;59019;47.638;18.966;2023-08-17T13:28:20;34.15;55.52
71254;HTU21D;59019;47.638;18.966;2023-08-17T13:30:46;33.99;55.20
71254;HTU21D;59019;47.638;18.966;2023-08-17T13:33:12;33.66;55.52
71254;HTU21D;59019;47.638;18.966;2023-08-17T13:35:38;33.55;57.39
71254;HTU21D;59019;47.638;18.966;2023-08-17T13:38:04;33.12;58.03
71254;HTU21D;59019;47.638;18.966;2023-08-17T13:40:30;32.87;57.39
71254;HTU21D;59019;47.638;18.966;2023-08-17T13:42:56;33.17;56.90
71254;HTU21D;59019;47.638;18.966;2023-08-17T13:45:23;32.74;58.15
71254;HTU21D;59019;47.638;18.966;2023-08-17T13:47:48;32.43;59.12
71254;HTU21D;59019;47.638;18.966;2023-08-17T13:50:14;31.69;60.11
71254;HTU21D;59019;47.638;18.966;2023-08-17T13:52:39;31.21;60.77
71254;HTU21D;59019;47.638;18.966;2023-08-17T13:55:05;31.02;62.41
71254;HTU21D;59019;47.638;18.966;2023-08-17T13:57:31;30.86;63.75
71254;HTU21D;59019;47.638;18.966;2023-08-17T13:59:56;31.05;64.84
71254;HTU21D;59019;47.638;18.966;2023-08-17T14:02:22;31.02;63.67
71254;HTU21D;59019;47.638;18.966;2023-08-17T14:04:47;31.05;63.17
71254;HTU21D;59019;47.638;18.966;2023-08-17T14:07:13;30.76;65.00
71254;HTU21D;59019;47.638;18.966;2023-08-17T14:09:38;30.69;65.83
71254;HTU21D;59019;47.638;18.966;2023-08-17T14:12:04;30.61;65.58
71254;HTU21D;59019;47.638;18.966;2023-08-17T14:14:30;30.68;63.75
71254;HTU21D;59019;47.638;18.966;2023-08-17T14:16:56;31.24;62.98
71254;HTU21D;59019;47.638;18.966;2023-08-17T14:19:22;31.06;62.24
71254;HTU21D;59019;47.638;18.966;2023-08-17T14:21:48;30.28;63.27
71254;HTU21D;59019;47.638;18.966;2023-08-17T14:24:13;29.16;65.95
71254;HTU21D;59019;47.638;18.966;2023-08-17T14:26:39;28.74;67.23
71254;HTU21D;59019;47.638;18.966;2023-08-17T14:29:04;28.64;67.81
71254;HTU21D;59019;47.638;18.966;2023-08-17T14:31:30;28.14;68.72
71254;HTU21D;59019;47.638;18.966;2023-08-17T14:33:55;27.69;71.69
71254;HTU21D;59019;47.638;18.966;2023-08-17T14:36:21;27.11;75.54
71254;HTU21D;59019;47.638;18.966;2023-08-17T14:38:46;26.66;77.10
71254;HTU21D;59019;47.638;18.966;2023-08-17T14:41:12;26.73;77.51
71254;HTU21D;59019;47.638;18.966;2023-08-17T14:43:38;26.92;78.58
71254;HTU21D;59019;47.638;18.966;2023-08-17T14:46:03;27.06;80.82
71254;HTU21D;59019;47.638;18.966;2023-08-17T14:48:29;27.17;79.91
71254;HTU21D;59019;47.638;18.966;2023-08-17T14:50:54;27.19;80.29
71254;HTU21D;59019;47.638;18.966;2023-08-17T14:53:21;27.16;79.98
71254;HTU21D;59019;47.638;18.966;2023-08-17T14:55:46;27.24;77.93
71254;HTU21D;59019;47.638;18.966;2023-08-17T14:58:12;27.34;77.31
71254;HTU21D;59019;47.638;18.966;2023-08-17T15:00:39;27.50;79.86